sensor_id;sensor_type;location;lat;lon;timestamp;P1;durP1;ratioP1;P2;durP2;ratioP2
77802;SDS011;66993;48.256;16.422;2023-08-07T00:02:50;1.9;;;0.9;;
77802;SDS011;66993;48.256;16.422;2023-08-07T00:07:52;2.4;;;0.9;;
77802;SDS011;66993;48.256;16.422;2023-08-07T00:12:53;1.6;;;1.0;;
77802;SDS011;66993;48.256;16.422;2023-08-07T00:17:54;2.4;;;1.3;;
77802;SDS011;66993;48.256;16.422;2023-08-07T00:22:55;2.1;;;1.2;;
77802;SDS011;66993;48.256;16.422;2023-08-07T00:27:57;1.9;;;0.9;;
77802;SDS011;66993;48.256;16.422;2023-08-07T00:32:58;1.9;;;1.0;;
77802;SDS011;66993;48.256;16.422;2023-08-07T00:37:59;1.8;;;1.2;;
77802;SDS011;66993;48.256;16.422;2023-08-07T00:43:00;2.2;;;1.3;;
77802;SDS011;66993;48.256;16.422;2023-08-07T00:48:02;1.8;;;1.2;;
77802;SDS011;66993;48.256;16.422;2023-08-07T00:53:03;2.1;;;1.1;;
77802;SDS011;66993;48.256;16.422;2023-08-07T00:58:04;2.0;;;1.0;;
77802;SDS011;66993;48.256;16.422;2023-08-07T01:03:06;3.0;;;1.1;;
77802;SDS011;66993;48.256;16.422;2023-08-07T01:08:07;2.7;;;1.2;;
77802;SDS011;66993;48.256;16.422;2023-08-07T01:13:10;2.0;;;1.2;;
77802;SDS011;66993;48.256;16.422;2023-08-07T01:18:09;3.8;;;1.2;;
77802;SDS011;66993;48.256;16.422;2023-08-07T01:23:10;2.6;;;1.2;;
77802;SDS011;66993;48.256;16.422;2023-08-07T01:28:14;2.1;;;1.2;;
77802;SDS011;66993;48.256;16.422;2023-08-07T01:33:14;2.7;;;1.2;;
77802;SDS011;66993;48.256;16.422;2023-08-07T01:38:14;2.0;;;1.3;;
77802;SDS011;66993;48.256;16.422;2023-08-07T01:43:15;1.9;;;0.9;;
77802;SDS011;66993;48.256;16.422;2023-08-07T01:48:17;2.6;;;1.1;;
77802;SDS011;66993;48.256;16.422;2023-08-07T01:53:18;2.5;;;1.1;;
77802;SDS011;66993;48.256;16.422;2023-08-07T01:58:19;2.8;;;1.4;;
77802;SDS011;66993;48.256;16.422;2023-08-07T02:03:20;3.1;;;1.4;;
77802;SDS011;66993;48.256;16.422;2023-08-07T02:08:22;1.8;;;1.1;;
77802;SDS011;66993;48.256;16.422;2023-08-07T02:13:23;2.6;;;1.2;;
77802;SDS011;66993;48.256;16.422;2023-08-07T02:18:24;2.4;;;1.6;;
77802;SDS011;66993;48.256;16.422;2023-08-07T02:23:25;2.7;;;1.5;;
77802;SDS011;66993;48.256;16.422;2023-08-07T02:28:27;2.7;;;1.5;;
77802;SDS011;66993;48.256;16.422;2023-08-07T02:33:28;3.2;;;1.7;;
77802;SDS011;66993;48.256;16.422;2023-08-07T02:38:29;2.3;;;1.2;;
77802;SDS011;66993;48.256;16.422;2023-08-07T02:43:30;3.0;;;1.6;;
77802;SDS011;66993;48.256;16.422;2023-08-07T02:48:32;2.4;;;1.3;;
77802;SDS011;66993;48.256;16.422;2023-08-07T02:53:33;4.7;;;1.5;;
77802;SDS011;66993;48.256;16.422;2023-08-07T02:58:34;2.0;;;1.2;;
77802;SDS011;66993;48.256;16.422;2023-08-07T03:03:35;2.6;;;1.1;;
77802;SDS011;66993;48.256;16.422;2023-08-07T03:08:37;2.0;;;1.3;;
77802;SDS011;66993;48.256;16.422;2023-08-07T03:13:38;2.5;;;1.4;;
77802;SDS011;66993;48.256;16.422;2023-08-07T03:18:39;2.4;;;1.6;;
77802;SDS011;66993;48.256;16.422;2023-08-07T03:23:40;3.0;;;1.1;;
77802;SDS011;66993;48.256;16.422;2023-08-07T03:28:42;2.3;;;1.2;;
77802;SDS011;66993;48.256;16.422;2023-08-07T03:33:43;2.6;;;1.4;;
77802;SDS011;66993;48.256;16.422;2023-08-07T03:38:44;2.5;;;1.2;;
77802;SDS011;66993;48.256;16.422;2023-08-07T03:43:46;1.7;;;1.2;;
77802;SDS011;66993;48.256;16.422;2023-08-07T03:48:47;2.0;;;1.1;;
77802;SDS011;66993;48.256;16.422;2023-08-07T03:53:48;2.0;;;1.5;;
77802;SDS011;66993;48.256;16.422;2023-08-07T03:58:49;2.5;;;1.2;;
77802;SDS011;66993;48.256;16.422;2023-08-07T04:03:51;2.5;;;1.4;;
77802;SDS011;66993;48.256;16.422;2023-08-07T04:08:52;3.4;;;1.3;;
77802;SDS011;66993;48.256;16.422;2023-08-07T04:13:53;2.5;;;1.0;;
77802;SDS011;66993;48.256;16.422;2023-08-07T04:18:54;1.8;;;1.1;;
77802;SDS011;66993;48.256;16.422;2023-08-07T04:23:56;2.4;;;1.2;;
77802;SDS011;66993;48.256;16.422;2023-08-07T04:28:57;2.1;;;1.2;;
77802;SDS011;66993;48.256;16.422;2023-08-07T04:33:58;1.9;;;1.2;;
77802;SDS011;66993;48.256;16.422;2023-08-07T04:38:59;2.5;;;1.0;;
77802;SDS011;66993;48.256;16.422;2023-08-07T04:44:01;2.7;;;1.0;;
77802;SDS011;66993;48.256;16.422;2023-08-07T04:49:02;1.4;;;1.0;;
77802;SDS011;66993;48.256;16.422;2023-08-07T04:54:03;3.8;;;1.1;;
77802;SDS011;66993;48.256;16.422;2023-08-07T04:59:05;2.3;;;1.3;;
77802;SDS011;66993;48.256;16.422;2023-08-07T05:04:06;2.6;;;1.1;;
77802;SDS011;66993;48.256;16.422;2023-08-07T05:09:07;1.5;;;0.8;;
77802;SDS011;66993;48.256;16.422;2023-08-07T05:14:08;2.9;;;1.1;;
77802;SDS011;66993;48.256;16.422;2023-08-07T05:19:10;2.8;;;1.2;;
77802;SDS011;66993;48.256;16.422;2023-08-07T05:24:11;1.2;;;1.1;;
77802;SDS011;66993;48.256;16.422;2023-08-07T05:29:12;2.9;;;0.9;;
77802;SDS011;66993;48.256;16.422;2023-08-07T05:34:13;1.2;;;0.8;;
77802;SDS011;66993;48.256;16.422;2023-08-07T05:39:14;3.0;;;1.0;;
77802;SDS011;66993;48.256;16.422;2023-08-07T05:44:16;4.5;;;0.9;;
77802;SDS011;66993;48.256;16.422;2023-08-07T05:49:17;1.2;;;1.0;;
77802;SDS011;66993;48.256;16.422;2023-08-07T05:54:18;0.6;;;0.6;;
77802;SDS011;66993;48.256;16.422;2023-08-07T05:59:19;1.5;;;0.7;;
77802;SDS011;66993;48.256;16.422;2023-08-07T06:04:21;1.7;;;0.9;;
77802;SDS011;66993;48.256;16.422;2023-08-07T06:09:22;2.4;;;0.9;;
77802;SDS011;66993;48.256;16.422;2023-08-07T06:14:23;1.6;;;1.1;;
77802;SDS011;66993;48.256;16.422;2023-08-07T06:19:25;1.1;;;0.6;;
77802;SDS011;66993;48.256;16.422;2023-08-07T06:24:26;1.9;;;0.7;;
77802;SDS011;66993;48.256;16.422;2023-08-07T06:29:28;2.0;;;0.8;;
77802;SDS011;66993;48.256;16.422;2023-08-07T06:34:28;1.1;;;1.0;;
77802;SDS011;66993;48.256;16.422;2023-08-07T06:39:30;1.9;;;0.9;;
77802;SDS011;66993;48.256;16.422;2023-08-07T06:44:31;1.3;;;0.7;;
77802;SDS011;66993;48.256;16.422;2023-08-07T06:49:32;1.8;;;0.7;;
77802;SDS011;66993;48.256;16.422;2023-08-07T06:54:34;1.3;;;0.9;;
77802;SDS011;66993;48.256;16.422;2023-08-07T06:59:35;0.9;;;0.9;;
77802;SDS011;66993;48.256;16.422;2023-08-07T07:04:37;1.9;;;1.0;;
77802;SDS011;66993;48.256;16.422;2023-08-07T07:09:37;1.8;;;0.8;;
77802;SDS011;66993;48.256;16.422;2023-08-07T07:14:39;2.5;;;0.8;;
77802;SDS011;66993;48.256;16.422;2023-08-07T07:19:40;2.7;;;1.0;;
77802;SDS011;66993;48.256;16.422;2023-08-07T07:24:42;1.5;;;1.1;;
77802;SDS011;66993;48.256;16.422;2023-08-07T07:29:42;1.8;;;1.1;;
77802;SDS011;66993;48.256;16.422;2023-08-07T07:34:44;2.5;;;0.8;;
77802;SDS011;66993;48.256;16.422;2023-08-07T07:39:45;2.2;;;1.2;;
77802;SDS011;66993;48.256;16.422;2023-08-07T07:44:46;3.5;;;1.1;;
77802;SDS011;66993;48.256;16.422;2023-08-07T07:49:48;3.2;;;1.4;;
77802;SDS011;66993;48.256;16.422;2023-08-07T07:54:49;2.1;;;1.2;;
77802;SDS011;66993;48.256;16.422;2023-08-07T07:59:50;1.0;;;0.9;;
77802;SDS011;66993;48.256;16.422;2023-08-07T08:04:53;2.4;;;1.1;;
77802;SDS011;66993;48.256;16.422;2023-08-07T08:09:53;2.4;;;1.1;;
77802;SDS011;66993;48.256;16.422;2023-08-07T08:14:54;3.3;;;1.1;;
77802;SDS011;66993;48.256;16.422;2023-08-07T08:19:55;2.3;;;1.2;;
77802;SDS011;66993;48.256;16.422;2023-08-07T08:24:57;3.1;;;0.9;;
77802;SDS011;66993;48.256;16.422;2023-08-07T08:29:58;1.6;;;0.9;;
77802;SDS011;66993;48.256;16.422;2023-08-07T08:34:59;1.4;;;1.0;;
77802;SDS011;66993;48.256;16.422;2023-08-07T08:40:00;2.7;;;1.1;;
77802;SDS011;66993;48.256;16.422;2023-08-07T08:45:02;2.4;;;1.1;;
77802;SDS011;66993;48.256;16.422;2023-08-07T08:50:04;1.9;;;1.0;;
77802;SDS011;66993;48.256;16.422;2023-08-07T08:55:05;3.8;;;0.9;;
77802;SDS011;66993;48.256;16.422;2023-08-07T09:00:06;2.1;;;1.1;;
77802;SDS011;66993;48.256;16.422;2023-08-07T09:05:07;3.6;;;1.2;;
77802;SDS011;66993;48.256;16.422;2023-08-07T09:10:09;1.5;;;1.1;;
77802;SDS011;66993;48.256;16.422;2023-08-07T09:15:11;2.0;;;1.0;;
77802;SDS011;66993;48.256;16.422;2023-08-07T09:20:11;3.1;;;1.0;;
77802;SDS011;66993;48.256;16.422;2023-08-07T09:25:12;3.2;;;1.4;;
77802;SDS011;66993;48.256;16.422;2023-08-07T09:30:13;2.2;;;1.2;;
77802;SDS011;66993;48.256;16.422;2023-08-07T09:35:15;2.3;;;1.4;;
77802;SDS011;66993;48.256;16.422;2023-08-07T09:40:17;1.9;;;0.9;;
77802;SDS011;66993;48.256;16.422;2023-08-07T09:45:19;2.6;;;1.1;;
77802;SDS011;66993;48.256;16.422;2023-08-07T09:50:19;2.2;;;1.2;;
77802;SDS011;66993;48.256;16.422;2023-08-07T09:55:20;2.9;;;1.6;;
77802;SDS011;66993;48.256;16.422;2023-08-07T10:00:21;2.0;;;1.4;;
77802;SDS011;66993;48.256;16.422;2023-08-07T10:05:22;2.2;;;1.2;;
77802;SDS011;66993;48.256;16.422;2023-08-07T10:10:24;2.3;;;1.3;;
77802;SDS011;66993;48.256;16.422;2023-08-07T10:15:26;2.5;;;1.4;;
77802;SDS011;66993;48.256;16.422;2023-08-07T10:20:27;2.0;;;1.3;;
77802;SDS011;66993;48.256;16.422;2023-08-07T10:25:28;2.3;;;1.4;;
77802;SDS011;66993;48.256;16.422;2023-08-07T10:30:29;2.3;;;1.2;;
77802;SDS011;66993;48.256;16.422;2023-08-07T10:35:30;3.8;;;1.6;;
77802;SDS011;66993;48.256;16.422;2023-08-07T10:40:31;3.0;;;1.6;;
77802;SDS011;66993;48.256;16.422;2023-08-07T10:45:34;3.3;;;1.5;;
77802;SDS011;66993;48.256;16.422;2023-08-07T10:50:34;2.6;;;1.8;;
77802;SDS011;66993;48.256;16.422;2023-08-07T10:55:43;2.2;;;1.2;;
77802;SDS011;66993;48.256;16.422;2023-08-07T11:00:36;2.5;;;1.4;;
77802;SDS011;66993;48.256;16.422;2023-08-07T11:05:38;2.8;;;1.6;;
77802;SDS011;66993;48.256;16.422;2023-08-07T11:10:39;4.3;;;1.8;;
77802;SDS011;66993;48.256;16.422;2023-08-07T11:15:40;2.6;;;1.8;;
77802;SDS011;66993;48.256;16.422;2023-08-07T11:20:42;2.5;;;1.5;;
77802;SDS011;66993;48.256;16.422;2023-08-07T11:25:43;3.5;;;1.5;;
77802;SDS011;66993;48.256;16.422;2023-08-07T11:30:44;3.5;;;1.6;;
77802;SDS011;66993;48.256;16.422;2023-08-07T11:35:45;2.9;;;1.8;;
77802;SDS011;66993;48.256;16.422;2023-08-07T11:40:47;3.8;;;2.0;;
77802;SDS011;66993;48.256;16.422;2023-08-07T11:45:48;2.6;;;1.5;;
77802;SDS011;66993;48.256;16.422;2023-08-07T11:50:50;2.6;;;1.5;;
77802;SDS011;66993;48.256;16.422;2023-08-07T11:55:52;2.6;;;1.9;;
77802;SDS011;66993;48.256;16.422;2023-08-07T12:00:52;5.7;;;2.0;;
77802;SDS011;66993;48.256;16.422;2023-08-07T12:05:53;3.1;;;1.7;;
77802;SDS011;66993;48.256;16.422;2023-08-07T12:10:54;2.7;;;1.4;;
77802;SDS011;66993;48.256;16.422;2023-08-07T12:15:56;2.6;;;1.5;;
77802;SDS011;66993;48.256;16.422;2023-08-07T12:20:57;2.9;;;1.7;;
77802;SDS011;66993;48.256;16.422;2023-08-07T12:25:58;4.5;;;1.7;;
77802;SDS011;66993;48.256;16.422;2023-08-07T12:30:59;3.7;;;2.0;;
77802;SDS011;66993;48.256;16.422;2023-08-07T12:36:00;4.5;;;1.5;;
77802;SDS011;66993;48.256;16.422;2023-08-07T12:41:02;2.4;;;1.5;;
77802;SDS011;66993;48.256;16.422;2023-08-07T12:46:03;2.9;;;1.7;;
77802;SDS011;66993;48.256;16.422;2023-08-07T12:51:04;3.0;;;1.9;;
77802;SDS011;66993;48.256;16.422;2023-08-07T12:56:05;3.6;;;1.8;;
77802;SDS011;66993;48.256;16.422;2023-08-07T13:01:07;3.8;;;1.7;;
77802;SDS011;66993;48.256;16.422;2023-08-07T13:06:08;3.9;;;1.8;;
77802;SDS011;66993;48.256;16.422;2023-08-07T13:11:09;3.3;;;1.7;;
77802;SDS011;66993;48.256;16.422;2023-08-07T13:16:10;4.7;;;1.7;;
77802;SDS011;66993;48.256;16.422;2023-08-07T13:21:11;3.3;;;2.0;;
77802;SDS011;66993;48.256;16.422;2023-08-07T13:26:13;3.8;;;1.5;;
77802;SDS011;66993;48.256;16.422;2023-08-07T13:31:14;2.4;;;1.5;;
77802;SDS011;66993;48.256;16.422;2023-08-07T13:36:15;3.1;;;1.6;;
77802;SDS011;66993;48.256;16.422;2023-08-07T13:41:17;2.9;;;1.8;;
77802;SDS011;66993;48.256;16.422;2023-08-07T13:46:18;3.4;;;1.7;;
77802;SDS011;66993;48.256;16.422;2023-08-07T13:51:19;3.2;;;1.6;;
77802;SDS011;66993;48.256;16.422;2023-08-07T13:56:20;3.1;;;1.7;;
77802;SDS011;66993;48.256;16.422;2023-08-07T14:01:23;3.8;;;1.9;;
77802;SDS011;66993;48.256;16.422;2023-08-07T14:06:23;3.7;;;2.0;;
77802;SDS011;66993;48.256;16.422;2023-08-07T14:11:24;3.8;;;1.9;;
77802;SDS011;66993;48.256;16.422;2023-08-07T14:16:25;3.8;;;1.6;;
77802;SDS011;66993;48.256;16.422;2023-08-07T14:21:27;3.5;;;1.7;;
77802;SDS011;66993;48.256;16.422;2023-08-07T14:26:28;3.3;;;1.6;;
77802;SDS011;66993;48.256;16.422;2023-08-07T14:31:29;5.1;;;1.9;;
77802;SDS011;66993;48.256;16.422;2023-08-07T14:36:30;4.0;;;1.9;;
77802;SDS011;66993;48.256;16.422;2023-08-07T14:41:32;3.7;;;1.3;;
77802;SDS011;66993;48.256;16.422;2023-08-07T14:46:33;4.2;;;1.6;;
77802;SDS011;66993;48.256;16.422;2023-08-07T14:51:34;2.4;;;1.5;;
77802;SDS011;66993;48.256;16.422;2023-08-07T14:56:35;3.2;;;1.8;;
77802;SDS011;66993;48.256;16.422;2023-08-07T15:01:37;4.2;;;2.0;;
77802;SDS011;66993;48.256;16.422;2023-08-07T15:06:38;3.3;;;1.4;;
77802;SDS011;66993;48.256;16.422;2023-08-07T15:11:40;3.1;;;1.5;;
77802;SDS011;66993;48.256;16.422;2023-08-07T15:16:41;3.5;;;2.0;;
77802;SDS011;66993;48.256;16.422;2023-08-07T15:21:42;4.0;;;1.7;;
77802;SDS011;66993;48.256;16.422;2023-08-07T15:26:43;4.1;;;2.0;;
77802;SDS011;66993;48.256;16.422;2023-08-07T15:31:44;3.0;;;1.5;;
77802;SDS011;66993;48.256;16.422;2023-08-07T15:36:46;3.9;;;1.6;;
77802;SDS011;66993;48.256;16.422;2023-08-07T15:41:47;3.6;;;1.6;;
77802;SDS011;66993;48.256;16.422;2023-08-07T15:46:48;3.1;;;1.6;;
77802;SDS011;66993;48.256;16.422;2023-08-07T15:51:50;3.7;;;1.9;;
77802;SDS011;66993;48.256;16.422;2023-08-07T15:56:51;3.1;;;1.3;;
77802;SDS011;66993;48.256;16.422;2023-08-07T16:01:52;3.7;;;1.5;;
77802;SDS011;66993;48.256;16.422;2023-08-07T16:06:53;4.6;;;1.6;;
77802;SDS011;66993;48.256;16.422;2023-08-07T16:11:55;2.7;;;1.6;;
77802;SDS011;66993;48.256;16.422;2023-08-07T16:16:56;3.5;;;1.6;;
77802;SDS011;66993;48.256;16.422;2023-08-07T16:21:57;4.2;;;1.3;;
77802;SDS011;66993;48.256;16.422;2023-08-07T16:26:58;2.0;;;1.1;;
77802;SDS011;66993;48.256;16.422;2023-08-07T16:32:00;4.4;;;1.9;;
77802;SDS011;66993;48.256;16.422;2023-08-07T16:37:01;2.2;;;1.3;;
77802;SDS011;66993;48.256;16.422;2023-08-07T16:42:03;2.2;;;1.4;;
77802;SDS011;66993;48.256;16.422;2023-08-07T16:47:03;3.1;;;1.2;;
77802;SDS011;66993;48.256;16.422;2023-08-07T16:52:05;1.8;;;0.8;;
77802;SDS011;66993;48.256;16.422;2023-08-07T16:57:06;2.4;;;1.1;;
77802;SDS011;66993;48.256;16.422;2023-08-07T17:02:07;1.9;;;1.3;;
77802;SDS011;66993;48.256;16.422;2023-08-07T17:07:08;2.4;;;1.3;;
77802;SDS011;66993;48.256;16.422;2023-08-07T17:12:10;1.3;;;0.9;;
77802;SDS011;66993;48.256;16.422;2023-08-07T17:17:11;2.0;;;0.9;;
77802;SDS011;66993;48.256;16.422;2023-08-07T17:22:12;1.7;;;1.1;;
77802;SDS011;66993;48.256;16.422;2023-08-07T17:27:13;2.1;;;1.2;;
77802;SDS011;66993;48.256;16.422;2023-08-07T17:32:15;1.8;;;1.1;;
77802;SDS011;66993;48.256;16.422;2023-08-07T17:37:16;2.1;;;1.0;;
77802;SDS011;66993;48.256;16.422;2023-08-07T17:42:18;2.0;;;1.1;;
77802;SDS011;66993;48.256;16.422;2023-08-07T17:47:19;2.4;;;1.6;;
77802;SDS011;66993;48.256;16.422;2023-08-07T17:52:20;2.1;;;1.1;;
77802;SDS011;66993;48.256;16.422;2023-08-07T17:57:21;2.4;;;1.2;;
77802;SDS011;66993;48.256;16.422;2023-08-07T18:02:23;1.6;;;1.0;;
77802;SDS011;66993;48.256;16.422;2023-08-07T18:07:24;1.8;;;1.0;;
77802;SDS011;66993;48.256;16.422;2023-08-07T18:12:25;1.8;;;1.1;;
77802;SDS011;66993;48.256;16.422;2023-08-07T18:17:26;2.0;;;1.3;;
77802;SDS011;66993;48.256;16.422;2023-08-07T18:22:27;2.6;;;1.1;;
77802;SDS011;66993;48.256;16.422;2023-08-07T18:27:29;1.3;;;0.9;;
77802;SDS011;66993;48.256;16.422;2023-08-07T18:32:30;1.7;;;1.0;;
77802;SDS011;66993;48.256;16.422;2023-08-07T18:37:31;1.6;;;1.1;;
77802;SDS011;66993;48.256;16.422;2023-08-07T18:42:33;1.5;;;1.1;;
77802;SDS011;66993;48.256;16.422;2023-08-07T18:47:39;1.7;;;1.3;;
77802;SDS011;66993;48.256;16.422;2023-08-07T18:52:36;1.8;;;1.0;;
77802;SDS011;66993;48.256;16.422;2023-08-07T18:57:36;1.5;;;1.2;;
77802;SDS011;66993;48.256;16.422;2023-08-07T19:02:38;3.4;;;1.5;;
77802;SDS011;66993;48.256;16.422;2023-08-07T19:07:39;1.9;;;1.3;;
77802;SDS011;66993;48.256;16.422;2023-08-07T19:12:41;3.2;;;1.7;;
77802;SDS011;66993;48.256;16.422;2023-08-07T19:17:41;2.1;;;1.1;;
77802;SDS011;66993;48.256;16.422;2023-08-07T19:22:43;2.8;;;1.6;;
77802;SDS011;66993;48.256;16.422;2023-08-07T19:27:44;2.7;;;1.7;;
77802;SDS011;66993;48.256;16.422;2023-08-07T19:32:45;2.8;;;1.4;;
77802;SDS011;66993;48.256;16.422;2023-08-07T19:37:46;4.3;;;1.9;;
77802;SDS011;66993;48.256;16.422;2023-08-07T19:42:48;2.8;;;1.5;;
77802;SDS011;66993;48.256;16.422;2023-08-07T19:47:49;3.5;;;1.4;;
77802;SDS011;66993;48.256;16.422;2023-08-07T19:52:50;2.9;;;1.5;;
77802;SDS011;66993;48.256;16.422;2023-08-07T19:57:51;2.6;;;1.5;;
77802;SDS011;66993;48.256;16.422;2023-08-07T20:02:53;2.9;;;1.7;;
77802;SDS011;66993;48.256;16.422;2023-08-07T20:07:54;3.6;;;1.6;;
77802;SDS011;66993;48.256;16.422;2023-08-07T20:12:55;2.9;;;1.6;;
77802;SDS011;66993;48.256;16.422;2023-08-07T20:17:56;3.0;;;1.7;;
77802;SDS011;66993;48.256;16.422;2023-08-07T20:22:58;5.2;;;1.8;;
77802;SDS011;66993;48.256;16.422;2023-08-07T20:27:59;3.1;;;1.9;;
77802;SDS011;66993;48.256;16.422;2023-08-07T20:33:00;3.3;;;1.7;;
77802;SDS011;66993;48.256;16.422;2023-08-07T20:38:01;3.3;;;1.5;;
77802;SDS011;66993;48.256;16.422;2023-08-07T20:43:03;3.8;;;1.8;;
77802;SDS011;66993;48.256;16.422;2023-08-07T20:48:04;3.0;;;1.9;;
77802;SDS011;66993;48.256;16.422;2023-08-07T20:53:05;2.6;;;1.6;;
77802;SDS011;66993;48.256;16.422;2023-08-07T20:58:06;3.3;;;1.5;;
77802;SDS011;66993;48.256;16.422;2023-08-07T21:03:08;3.2;;;1.6;;
77802;SDS011;66993;48.256;16.422;2023-08-07T21:08:09;2.6;;;1.7;;
77802;SDS011;66993;48.256;16.422;2023-08-07T21:13:10;3.0;;;1.7;;
77802;SDS011;66993;48.256;16.422;2023-08-07T21:18:12;3.5;;;1.9;;
77802;SDS011;66993;48.256;16.422;2023-08-07T21:23:13;2.8;;;1.6;;
77802;SDS011;66993;48.256;16.422;2023-08-07T21:28:14;2.8;;;1.4;;
77802;SDS011;66993;48.256;16.422;2023-08-07T21:33:15;3.0;;;1.6;;
77802;SDS011;66993;48.256;16.422;2023-08-07T21:38:17;2.7;;;1.6;;
77802;SDS011;66993;48.256;16.422;2023-08-07T21:43:18;2.7;;;1.7;;
77802;SDS011;66993;48.256;16.422;2023-08-07T21:48:19;2.9;;;1.2;;
77802;SDS011;66993;48.256;16.422;2023-08-07T21:53:21;2.2;;;1.3;;
77802;SDS011;66993;48.256;16.422;2023-08-07T21:58:21;2.4;;;1.5;;
77802;SDS011;66993;48.256;16.422;2023-08-07T22:03:23;2.2;;;1.4;;
77802;SDS011;66993;48.256;16.422;2023-08-07T22:08:24;3.2;;;1.3;;
77802;SDS011;66993;48.256;16.422;2023-08-07T22:13:26;2.9;;;1.5;;
77802;SDS011;66993;48.256;16.422;2023-08-07T22:18:26;5.7;;;1.5;;
77802;SDS011;66993;48.256;16.422;2023-08-07T22:23:28;2.6;;;1.2;;
77802;SDS011;66993;48.256;16.422;2023-08-07T22:28:29;2.4;;;1.3;;
77802;SDS011;66993;48.256;16.422;2023-08-07T22:33:30;3.0;;;1.4;;
77802;SDS011;66993;48.256;16.422;2023-08-07T22:38:31;2.3;;;1.5;;
77802;SDS011;66993;48.256;16.422;2023-08-07T22:43:33;2.6;;;1.6;;
77802;SDS011;66993;48.256;16.422;2023-08-07T22:48:34;2.3;;;1.4;;
77802;SDS011;66993;48.256;16.422;2023-08-07T22:53:35;3.7;;;1.6;;
77802;SDS011;66993;48.256;16.422;2023-08-07T22:58:36;4.1;;;1.7;;
77802;SDS011;66993;48.256;16.422;2023-08-07T23:03:38;2.8;;;1.7;;
77802;SDS011;66993;48.256;16.422;2023-08-07T23:08:39;3.5;;;1.7;;
77802;SDS011;66993;48.256;16.422;2023-08-07T23:13:40;3.7;;;1.9;;
77802;SDS011;66993;48.256;16.422;2023-08-07T23:18:41;4.0;;;1.7;;
77802;SDS011;66993;48.256;16.422;2023-08-07T23:23:43;4.1;;;1.9;;
77802;SDS011;66993;48.256;16.422;2023-08-07T23:28:44;3.8;;;2.0;;
77802;SDS011;66993;48.256;16.422;2023-08-07T23:33:45;3.8;;;1.8;;
77802;SDS011;66993;48.256;16.422;2023-08-07T23:38:46;3.1;;;1.8;;
77802;SDS011;66993;48.256;16.422;2023-08-07T23:43:48;4.2;;;1.7;;
77802;SDS011;66993;48.256;16.422;2023-08-07T23:48:49;5.4;;;2.2;;
77802;SDS011;66993;48.256;16.422;2023-08-07T23:53:50;3.1;;;2.0;;
77802;SDS011;66993;48.256;16.422;2023-08-07T23:58:51;3.2;;;2.0;;
